Time;durP1;ratioP1;P1;durP2;ratioP2;P2;SDS_P1;SDS_P2;PMS_P1;PMS_P2;Temp;Humidity;BMP_temperature;BMP_pressure;BME280_temperature;BME280_humidity;BME280_pressure;Samples;Min_cycle;Max_cycle;Signal;HPM_P1;HPM_P2
2022/12/18 00:02:05;;;;;;;4.68;4.38;;;;;;;7.46;76.01;95676.78;5114770;28;20179;-69
2022/12/18 00:04:32;;;;;;;4.70;4.30;;;;;;;7.45;75.74;95681.47;5114649;28;20196;-70
2022/12/18 00:06:59;;;;;;;4.90;4.50;;;;;;;7.35;75.86;95684.50;5114766;28;20206;-70
2022/12/18 00:09:26;;;;;;;4.65;4.35;;;;;;;7.29;75.88;95683.03;5114324;28;20188;-70
2022/12/18 00:11:52;;;;;;;4.38;4.07;;;;;;;7.26;76.33;95686.41;5114868;28;20188;-70
2022/12/18 00:14:19;;;;;;;4.40;4.00;;;;;;;7.26;76.48;95678.16;5114555;28;20188;-70
2022/12/18 00:16:48;;;;;;;4.53;4.22;;;;;;;7.22;76.35;95694.44;5114690;28;20227;-70
2022/12/18 00:19:15;;;;;;;4.68;4.28;;;;;;;7.27;75.91;95682.53;5114739;28;20188;-70
2022/12/18 00:21:43;;;;;;;4.93;4.53;;;;;;;7.28;76.08;95692.38;5114181;28;20242;-70
2022/12/18 00:24:10;;;;;;;5.05;4.65;;;;;;;7.27;75.83;95695.47;5114618;28;20202;-70
2022/12/18 00:26:38;;;;;;;4.93;4.57;;;;;;;7.25;75.74;95695.75;5114735;28;20202;-70
2022/12/18 00:29:06;;;;;;;5.30;4.90;;;;;;;7.24;76.07;95707.88;5117150;28;20199;-70
2022/12/18 00:31:33;;;;;;;4.90;4.50;;;;;;;7.24;75.93;95705.94;5118254;28;20199;-70
2022/12/18 00:34:02;;;;;;;5.00;4.60;;;;;;;7.19;75.68;95714.31;5118775;28;20218;-70
2022/12/18 00:36:33;;;;;;;5.45;5.05;;;;;;;7.18;76.33;95714.59;5118080;28;20200;-70
2022/12/18 00:39:03;;;;;;;5.28;4.88;;;;;;;7.19;76.00;95716.25;5118154;28;20283;-70
2022/12/18 00:44:15;;;;;;;5.25;4.85;;;;;;;7.22;76.19;95721.88;5118374;28;20191;-70
2022/12/18 00:46:43;;;;;;;5.55;5.15;;;;;;;7.19;75.84;95721.72;5117969;28;20203;-70
2022/12/18 00:49:14;;;;;;;5.43;5.03;;;;;;;7.15;76.10;95721.56;5117836;28;20195;-70
2022/12/18 00:51:41;;;;;;;6.00;5.50;;;;;;;7.09;75.42;95727.50;5117743;28;20192;-70
2022/12/18 00:54:08;;;;;;;6.05;5.55;;;;;;;7.05;75.84;95727.31;5117842;28;20198;-69
2022/12/18 00:56:36;;;;;;;5.60;5.20;;;;;;;7.00;75.29;95728.22;5118065;28;20700;-69
2022/12/18 00:59:03;;;;;;;5.95;5.45;;;;;;;6.99;76.06;95732.09;5117988;28;20198;-70
2022/12/18 01:01:30;;;;;;;5.88;5.45;;;;;;;6.98;76.38;95737.91;5117881;28;20183;-70
2022/12/18 01:03:59;;;;;;;5.85;5.35;;;;;;;6.94;75.97;95735.00;5117877;28;20256;-70
2022/12/18 01:06:27;;;;;;;5.45;5.05;;;;;;;6.92;75.84;95730.94;5117806;28;20264;-70
2022/12/18 01:08:54;;;;;;;5.32;4.93;;;;;;;6.93;76.10;95733.34;5117925;28;20202;-69
2022/12/18 01:11:21;;;;;;;6.00;5.53;;;;;;;6.89;75.22;95748.00;5117705;28;20195;-69
2022/12/18 01:13:48;;;;;;;5.55;5.10;;;;;;;6.82;75.26;95744.88;5117372;28;20627;-70
2022/12/18 01:16:16;;;;;;;5.78;5.38;;;;;;;6.79;74.89;95742.78;5117596;28;20214;-69
2022/12/18 01:18:43;;;;;;;6.15;5.65;;;;;;;6.72;75.11;95754.19;5117255;28;20223;-69
2022/12/18 01:21:11;;;;;;;6.25;5.75;;;;;;;6.66;74.99;95748.00;5117004;28;20266;-69
2022/12/18 01:23:39;;;;;;;6.45;5.90;;;;;;;6.63;75.29;95750.56;5117206;28;20184;-70
2022/12/18 01:26:07;;;;;;;6.32;5.82;;;;;;;6.60;75.29;95751.19;5117640;28;20195;-70
2022/12/18 01:28:34;;;;;;;6.30;5.80;;;;;;;6.64;75.30;95752.19;5117295;28;20183;-70
2022/12/18 01:31:11;;;;;;;6.35;5.88;;;;;;;6.64;75.12;95755.72;5117609;28;20198;-69
2022/12/18 01:33:38;;;;;;;6.63;6.13;;;;;;;6.66;75.54;95749.94;5117262;28;20202;-69
2022/12/18 01:36:05;;;;;;;5.65;5.25;;;;;;;6.64;75.32;95744.75;5117272;28;20195;-69
2022/12/18 01:38:32;;;;;;;6.32;5.82;;;;;;;6.60;75.30;95762.16;5116945;28;20211;-69
2022/12/18 01:41:01;;;;;;;6.45;5.95;;;;;;;6.56;75.41;95755.66;5115893;28;20211;-69
2022/12/18 01:43:45;;;;;;;5.97;5.57;;;;;;;6.58;75.19;95758.94;5116946;28;20195;-69
2022/12/18 01:46:12;;;;;;;6.18;5.68;;;;;;;6.60;75.36;95762.16;5117058;28;20214;-69
2022/12/18 01:48:40;;;;;;;6.03;5.57;;;;;;;6.62;75.41;95766.22;5116843;28;20256;-69
2022/12/18 01:51:09;;;;;;;6.00;5.60;;;;;;;6.57;74.41;95762.75;5116925;28;20188;-69
2022/12/18 01:53:37;;;;;;;5.82;5.28;;;;;;;6.57;74.79;95760.84;5116945;28;20187;-69
2022/12/18 01:56:06;;;;;;;6.00;5.50;;;;;;;6.53;74.29;95767.25;5117062;28;20195;-69
2022/12/18 01:58:37;;;;;;;5.53;5.13;;;;;;;6.51;74.71;95771.13;5116696;28;20260;-69
2022/12/18 02:01:04;;;;;;;5.88;5.45;;;;;;;6.50;74.91;95764.03;5116376;28;20206;-69
2022/12/18 02:03:31;;;;;;;5.85;5.35;;;;;;;6.51;75.12;95768.38;5117585;28;20215;-69
2022/12/18 02:06:04;;;;;;;6.07;5.57;;;;;;;6.54;74.89;95771.63;5116926;28;20210;-69
2022/12/18 02:08:34;;;;;;;5.65;5.25;;;;;;;6.55;74.62;95770.50;5117587;28;20233;-69
2022/12/18 02:11:08;;;;;;;5.68;5.28;;;;;;;6.56;74.77;95777.59;5117606;28;20184;-69
2022/12/18 02:13:42;;;;;;;5.55;5.15;;;;;;;6.53;74.60;95770.00;5117059;28;20195;-69
2022/12/18 02:16:16;;;;;;;5.05;4.65;;;;;;;6.53;74.58;95780.94;5117550;28;20219;-69
2022/12/18 02:18:46;;;;;;;5.50;5.10;;;;;;;6.52;74.53;95777.41;5116917;28;20639;-69
2022/12/18 02:21:21;;;;;;;5.50;5.10;;;;;;;6.50;74.28;95793.38;5117004;28;20238;-69
2022/12/18 02:23:52;;;;;;;5.80;5.30;;;;;;;6.46;74.52;95792.34;5117827;27;20191;-69
2022/12/18 02:26:24;;;;;;;5.05;4.72;;;;;;;6.45;74.59;95787.97;5116181;28;20203;-69
2022/12/18 02:28:54;;;;;;;5.50;5.10;;;;;;;6.45;74.54;95793.47;5116119;28;20192;-69
2022/12/18 02:31:27;;;;;;;5.35;4.95;;;;;;;6.42;74.52;95788.59;5115871;28;20195;-69
2022/12/18 02:33:59;;;;;;;5.80;5.40;;;;;;;6.43;74.29;95793.78;5115757;28;20635;-69
2022/12/18 02:36:26;;;;;;;5.88;5.35;;;;;;;6.44;74.34;95794.59;5116258;28;20204;-69
2022/12/18 02:38:53;;;;;;;5.57;5.18;;;;;;;6.39;74.15;95805.66;5115591;28;20208;-69
2022/12/18 02:41:24;;;;;;;5.50;5.00;;;;;;;6.35;74.41;95802.72;5116112;28;20196;-69
2022/12/18 02:43:57;;;;;;;5.50;5.10;;;;;;;6.30;73.85;95804.78;5116113;28;20199;-69
2022/12/18 02:46:34;;;;;;;6.15;5.65;;;;;;;6.23;73.92;95806.00;5116193;28;20191;-69
2022/12/18 02:49:08;;;;;;;7.10;6.50;;;;;;;6.24;74.61;95810.34;5115557;28;20191;-69
2022/12/18 02:51:40;;;;;;;5.53;5.05;;;;;;;6.29;74.71;95816.84;5115203;28;20195;-69
2022/12/18 02:54:11;;;;;;;5.43;5.03;;;;;;;6.25;74.37;95809.25;5115769;28;20187;-69
2022/12/18 02:56:44;;;;;;;5.97;5.50;;;;;;;6.26;74.30;95807.31;5115789;28;20207;-69
2022/12/18 02:59:15;;;;;;;4.82;4.43;;;;;;;6.21;73.76;95807.44;5115806;28;20216;-69
2022/12/18 03:01:48;;;;;;;5.22;4.85;;;;;;;6.20;74.02;95808.53;5115463;28;20248;-69
2022/12/18 03:04:17;;;;;;;5.70;5.22;;;;;;;6.20;74.21;95814.00;5115281;28;20188;-69
2022/12/18 03:06:48;;;;;;;4.70;4.30;;;;;;;6.13;73.98;95810.88;5115380;28;20203;-69
2022/12/18 03:09:19;;;;;;;5.15;4.75;;;;;;;6.02;73.91;95808.34;5115470;28;20184;-69
2022/12/18 03:14:35;;;;;;;5.70;5.30;;;;;;;5.98;73.48;95814.75;5116130;28;20176;-69
2022/12/18 03:17:04;;;;;;;5.35;4.95;;;;;;;5.91;73.92;95819.78;5115916;28;20199;-69
2022/12/18 03:19:34;;;;;;;5.85;5.38;;;;;;;5.87;73.63;95827.00;5116003;28;20212;-69
2022/12/18 03:22:03;;;;;;;6.32;5.82;;;;;;;5.89;73.96;95836.53;5115860;28;20292;-69
2022/12/18 03:24:30;;;;;;;6.53;5.93;;;;;;;5.94;74.37;95835.66;5115546;28;20233;-69
2022/12/18 03:27:02;;;;;;;6.47;5.97;;;;;;;5.98;74.17;95839.41;5115083;28;20669;-69
2022/12/18 03:29:33;;;;;;;6.15;5.65;;;;;;;6.02;74.29;95840.41;5116007;28;20252;-69
2022/12/18 03:32:08;;;;;;;5.60;5.20;;;;;;;6.08;74.24;95847.41;5115959;28;20220;-69
2022/12/18 03:34:38;;;;;;;5.32;4.93;;;;;;;6.06;73.09;95843.34;5115224;28;20198;-70
2022/12/18 03:37:05;;;;;;;6.32;5.82;;;;;;;6.01;73.68;95842.34;5115906;28;20511;-70
2022/12/18 03:39:32;;;;;;;6.20;5.60;;;;;;;6.01;73.54;95845.06;5114911;28;20238;-69
2022/12/18 03:42:05;;;;;;;6.40;5.90;;;;;;;5.99;73.85;95855.53;5115753;28;20184;-69
2022/12/18 03:44:37;;;;;;;6.13;5.68;;;;;;;5.93;73.46;95861.41;5115562;28;20595;-69
2022/12/18 03:47:09;;;;;;;5.18;4.78;;;;;;;5.91;73.74;95863.59;5115934;28;20188;-69
2022/12/18 03:49:39;;;;;;;6.47;5.88;;;;;;;5.90;73.56;95873.75;5114766;28;20199;-69
2022/12/18 03:52:09;;;;;;;5.82;5.32;;;;;;;5.93;73.57;95869.63;5115128;28;20245;-69
2022/12/18 03:54:36;;;;;;;5.88;5.47;;;;;;;5.94;73.30;95877.53;5115801;28;20184;-69
2022/12/18 03:57:10;;;;;;;5.38;4.97;;;;;;;5.87;73.16;95871.59;5115454;28;20639;-69
2022/12/18 03:59:37;;;;;;;5.90;5.50;;;;;;;5.91;74.00;95869.88;5115452;28;20219;-69
2022/12/18 04:02:06;;;;;;;5.20;4.80;;;;;;;5.95;73.55;95867.38;5115691;28;20188;-69
2022/12/18 04:04:33;;;;;;;5.68;5.18;;;;;;;5.97;72.82;95874.19;5118338;28;20226;-69
2022/12/18 04:07:00;;;;;;;6.07;5.57;;;;;;;6.00;72.74;95875.50;5119680;28;20187;-70
2022/12/18 04:09:26;;;;;;;6.10;5.60;;;;;;;5.98;73.07;95880.47;5119872;28;20252;-70
2022/12/18 04:11:53;;;;;;;6.20;5.60;;;;;;;5.96;72.19;95885.44;5118501;28;20192;-70
2022/12/18 04:14:21;;;;;;;6.45;5.95;;;;;;;5.91;72.77;95891.78;5119394;28;20199;-70
2022/12/18 04:16:48;;;;;;;6.45;5.95;;;;;;;5.89;72.46;95902.25;5119018;28;20191;-70
2022/12/18 04:19:15;;;;;;;6.90;6.38;;;;;;;5.88;72.29;95900.63;5119556;28;20226;-69
2022/12/18 04:21:42;;;;;;;6.30;5.80;;;;;;;5.89;72.30;95898.69;5119185;28;20242;-69
2022/12/18 04:24:09;;;;;;;6.72;6.13;;;;;;;5.90;71.79;95912.06;5119282;28;20184;-70
2022/12/18 04:26:36;;;;;;;7.18;6.57;;;;;;;5.89;71.78;95907.72;5119151;28;20191;-70
2022/12/18 04:29:02;;;;;;;7.53;6.88;;;;;;;5.84;71.10;95912.47;5119510;28;20233;-70
2022/12/18 04:31:31;;;;;;;7.68;7.07;;;;;;;5.78;71.07;95917.25;5119333;28;20192;-70
2022/12/18 04:33:58;;;;;;;7.55;6.95;;;;;;;5.78;71.11;95911.75;5101281;28;20253;-69
2022/12/18 04:36:28;;;;;;;7.63;7.03;;;;;;;5.82;71.01;95921.00;5118624;28;20192;-70
2022/12/18 04:38:54;;;;;;;7.90;7.20;;;;;;;5.76;70.54;95920.25;5119208;28;20276;-70
2022/12/18 04:41:21;;;;;;;7.82;7.20;;;;;;;5.73;70.14;95931.00;5118421;28;20661;-70
2022/12/18 04:43:48;;;;;;;8.18;7.47;;;;;;;5.68;69.82;95933.84;5118195;28;20195;-70
2022/12/18 04:46:15;;;;;;;8.30;7.60;;;;;;;5.63;69.07;95940.22;5119275;28;20307;-70
2022/12/18 04:48:46;;;;;;;8.52;7.78;;;;;;;5.59;69.36;95943.84;5117978;28;20554;-70
2022/12/18 04:51:12;;;;;;;8.55;7.85;;;;;;;5.55;69.58;95946.34;5118284;28;20187;-70
2022/12/18 04:53:39;;;;;;;8.15;7.35;;;;;;;5.51;69.57;95948.88;5118036;28;20196;-70
2022/12/18 04:56:07;;;;;;;8.30;7.60;;;;;;;5.50;69.74;95951.94;5119160;28;20184;-70
2022/12/18 04:58:34;;;;;;;8.25;7.55;;;;;;;5.53;70.11;95951.34;5117881;28;20220;-69
2022/12/18 05:01:01;;;;;;;8.02;7.32;;;;;;;5.50;69.80;95951.94;5117948;28;20210;-69
2022/12/18 05:03:28;;;;;;;9.00;8.20;;;;;;;5.41;69.54;95951.81;5117842;28;20199;-69
2022/12/18 05:05:56;;;;;;;9.50;8.70;;;;;;;5.40;69.69;95961.09;5119054;27;20199;-69
2022/12/18 05:08:23;;;;;;;9.45;8.65;;;;;;;5.36;69.52;95972.94;5118004;28;20291;-69
2022/12/18 05:10:50;;;;;;;9.55;8.75;;;;;;;5.35;69.70;95972.16;5117718;28;20657;-69
2022/12/18 05:13:16;;;;;;;9.40;8.60;;;;;;;5.26;69.83;95982.13;5117793;28;20203;-69
2022/12/18 05:15:43;;;;;;;9.80;8.98;;;;;;;5.27;70.05;95989.25;5117620;28;20187;-69
2022/12/18 05:18:10;;;;;;;10.40;9.50;;;;;;;5.25;69.72;95988.72;5118522;28;20204;-69
2022/12/18 05:20:37;;;;;;;10.20;9.30;;;;;;;5.24;69.91;95996.09;5117506;28;20204;-69
2022/12/18 05:23:05;;;;;;;10.10;9.20;;;;;;;5.24;70.05;96001.56;5118476;28;20221;-69
2022/12/18 05:25:31;;;;;;;10.20;9.30;;;;;;;5.29;70.24;95992.47;5118269;28;20198;-69
2022/12/18 05:27:58;;;;;;;9.82;9.00;;;;;;;5.34;70.39;95995.16;5117511;28;20188;-69
2022/12/18 05:30:25;;;;;;;9.65;8.85;;;;;;;5.36;70.29;96001.13;5117478;28;20196;-70
2022/12/18 05:32:52;;;;;;;9.02;8.30;;;;;;;5.35;69.99;96009.63;5117412;28;20187;-70
2022/12/18 05:35:19;;;;;;;8.73;7.95;;;;;;;5.35;69.80;96006.91;5118327;28;20203;-69
2022/12/18 05:37:46;;;;;;;9.15;8.40;;;;;;;5.32;69.41;96011.84;5118123;28;20195;-70
2022/12/18 05:40:14;;;;;;;9.02;8.32;;;;;;;5.34;68.92;96016.19;5117272;28;20216;-69
2022/12/18 05:42:41;;;;;;;9.98;9.07;;;;;;;5.32;69.08;96030.19;5118214;28;20308;-70
2022/12/18 05:45:08;;;;;;;9.45;8.65;;;;;;;5.24;68.60;96031.66;5116886;28;20260;-70
2022/12/18 05:47:36;;;;;;;10.30;9.40;;;;;;;5.20;68.30;96038.84;5116849;28;20204;-69
2022/12/18 05:50:02;;;;;;;10.63;9.73;;;;;;;5.13;68.37;96030.19;5117829;27;20184;-70
2022/12/18 05:52:29;;;;;;;11.60;10.60;;;;;;;5.07;68.78;96023.94;5117568;28;20191;-70
2022/12/18 05:54:56;;;;;;;10.95;9.95;;;;;;;5.09;68.15;96033.81;5117381;28;20196;-70
2022/12/18 05:57:24;;;;;;;12.10;11.00;;;;;;;5.11;68.91;96028.84;5116945;28;20199;-70
2022/12/18 05:59:51;;;;;;;12.52;11.45;;;;;;;5.11;68.15;96037.84;5117902;28;20219;-70
2022/12/18 06:02:18;;;;;;;12.55;11.45;;;;;;;5.12;68.64;96044.97;5117021;28;20199;-70
2022/12/18 06:04:44;;;;;;;12.27;11.18;;;;;;;5.15;68.79;96047.09;5116614;28;20199;-70
2022/12/18 06:07:11;;;;;;;11.50;10.50;;;;;;;5.08;68.91;96049.38;5116698;28;20207;-70
2022/12/18 06:09:38;;;;;;;10.68;9.68;;;;;;;5.13;69.16;96054.78;5115583;28;20541;-70
2022/12/18 06:12:07;;;;;;;10.90;10.00;;;;;;;5.17;69.06;96044.09;5099564;28;20202;-69
2022/12/18 06:14:35;;;;;;;10.52;9.63;;;;;;;5.15;68.78;96052.56;5117165;28;20211;-68
2022/12/18 06:17:01;;;;;;;10.63;9.65;;;;;;;5.13;68.82;96060.25;5117191;28;20184;-69
2022/12/18 06:19:28;;;;;;;10.13;9.23;;;;;;;5.10;69.06;96051.84;5116334;28;20227;-69
2022/12/18 06:21:57;;;;;;;10.43;9.52;;;;;;;5.10;69.29;96054.56;5116850;28;20235;-69
2022/12/18 06:24:24;;;;;;;11.70;10.60;;;;;;;5.14;69.71;96061.06;5116953;28;20588;-69
2022/12/18 06:26:50;;;;;;;11.35;10.15;;;;;;;5.18;69.09;96068.38;5116740;28;20241;-69
2022/12/18 06:29:17;;;;;;;11.63;10.52;;;;;;;5.20;69.12;96068.09;5116247;28;20196;-69
2022/12/18 06:31:46;;;;;;;13.35;12.05;;;;;;;5.14;68.89;96067.34;5116083;28;20204;-69
2022/12/18 06:34:12;;;;;;;14.15;12.75;;;;;;;5.19;69.24;96070.03;5116185;28;20195;-69
2022/12/18 06:36:39;;;;;;;13.07;11.82;;;;;;;5.11;68.91;96073.41;5116717;28;20180;-69
2022/12/18 06:39:06;;;;;;;13.48;12.07;;;;;;;5.17;69.18;96085.91;5116191;28;20215;-69
2022/12/18 06:41:32;;;;;;;14.45;12.95;;;;;;;5.18;68.89;96087.53;5116855;28;20500;-69
2022/12/18 06:43:59;;;;;;;14.85;13.45;;;;;;;5.17;69.19;96082.38;5116593;28;20209;-69
2022/12/18 06:46:26;;;;;;;13.70;12.50;;;;;;;5.17;69.15;96085.91;5116872;28;20192;-69
2022/12/18 06:48:54;;;;;;;12.90;11.70;;;;;;;5.20;69.15;96092.72;5116817;28;20203;-69
2022/12/18 06:51:22;;;;;;;12.52;11.32;;;;;;;5.20;68.74;96099.00;5116475;27;20199;-69
2022/12/18 06:53:49;;;;;;;12.25;11.15;;;;;;;5.22;68.30;96102.25;5116478;28;20664;-69
2022/12/18 06:56:17;;;;;;;12.23;11.18;;;;;;;5.23;68.44;96109.38;5116398;28;20203;-69
2022/12/18 06:58:43;;;;;;;12.73;11.48;;;;;;;5.18;68.62;96103.94;5116570;28;20199;-69
2022/12/18 07:01:12;;;;;;;12.40;11.32;;;;;;;5.21;68.88;96105.28;5116544;28;20196;-69
2022/12/18 07:03:39;;;;;;;13.02;11.82;;;;;;;5.21;68.86;96108.81;5098184;28;20215;-69
2022/12/18 07:06:12;;;;;;;13.02;11.75;;;;;;;5.23;68.50;96109.38;5115783;28;20195;-69
2022/12/18 07:08:39;;;;;;;13.60;12.20;;;;;;;5.28;68.71;96103.00;5115136;28;20672;-69
2022/12/18 07:11:06;;;;;;;12.93;11.73;;;;;;;5.32;68.68;96106.78;5116469;28;20188;-69
2022/12/18 07:13:33;;;;;;;12.63;11.43;;;;;;;5.36;68.06;96110.53;5115400;28;20198;-69
2022/12/18 07:16:05;;;;;;;12.32;11.13;;;;;;;5.34;67.48;96115.53;5115150;28;20203;-69
2022/12/18 07:18:32;;;;;;;12.25;11.05;;;;;;;5.34;67.25;96120.16;5115367;28;20208;-69
2022/12/18 07:20:59;;;;;;;11.43;10.43;;;;;;;5.31;67.37;96116.91;5114920;28;20249;-70
2022/12/18 07:23:27;;;;;;;11.13;10.13;;;;;;;5.27;67.69;96113.13;5114997;28;20188;-72
2022/12/18 07:25:54;;;;;;;11.52;10.52;;;;;;;5.29;67.76;96115.56;5115230;28;20192;-71
2022/12/18 07:28:20;;;;;;;11.65;10.60;;;;;;;5.28;67.57;96117.50;5115210;28;20222;-70
2022/12/18 07:30:47;;;;;;;11.90;10.80;;;;;;;5.24;67.69;96126.59;5115200;28;20200;-70
2022/12/18 07:33:14;;;;;;;11.43;10.43;;;;;;;5.24;67.71;96124.66;5115244;28;20199;-70
2022/12/18 07:35:41;;;;;;;12.38;11.27;;;;;;;5.27;68.11;96120.53;5115095;28;20260;-70
2022/12/18 07:38:08;;;;;;;12.50;11.40;;;;;;;5.27;67.71;96128.75;5114955;28;20272;-69
2022/12/18 07:40:36;;;;;;;12.68;11.57;;;;;;;5.28;67.75;96133.91;5115835;28;20253;-70
2022/12/18 07:43:03;;;;;;;12.85;11.75;;;;;;;5.27;67.36;96135.03;5115203;28;20203;-70
2022/12/18 07:45:33;;;;;;;13.05;11.95;;;;;;;5.19;67.35;96140.31;5115863;28;20203;-69
2022/12/18 07:47:59;;;;;;;13.73;12.43;;;;;;;5.16;67.38;96138.19;5115133;28;20199;-67
2022/12/18 07:50:27;;;;;;;13.45;12.15;;;;;;;5.14;67.42;96134.91;5115366;28;20199;-67
2022/12/18 07:52:53;;;;;;;14.05;12.75;;;;;;;5.12;67.91;96140.69;5114643;28;20188;-67
2022/12/18 07:55:20;;;;;;;14.43;13.13;;;;;;;5.10;67.49;96150.28;5115811;28;20187;-68
2022/12/18 07:57:48;;;;;;;13.57;12.27;;;;;;;5.07;67.64;96154.41;5114757;28;20227;-67
2022/12/18 08:00:16;;;;;;;13.73;12.52;;;;;;;5.08;67.52;96158.75;5116004;28;20214;-67
2022/12/18 08:02:42;;;;;;;14.43;13.20;;;;;;;5.08;67.77;96158.75;5114713;28;20284;-67
2022/12/18 08:05:10;;;;;;;14.52;13.13;;;;;;;5.08;67.40;96161.50;5114591;28;20195;-67
2022/12/18 08:07:36;;;;;;;14.23;12.93;;;;;;;5.00;67.70;96162.94;5115529;28;20184;-67
2022/12/18 08:10:03;;;;;;;15.02;13.73;;;;;;;4.97;67.48;96159.97;5114698;28;20644;-67
2022/12/18 08:12:30;;;;;;;13.90;12.60;;;;;;;4.96;67.41;96169.28;5114912;28;20192;-67
2022/12/18 08:14:58;;;;;;;14.95;13.55;;;;;;;4.96;68.24;96164.63;5115695;28;20176;-68
2022/12/18 08:17:25;;;;;;;15.25;13.88;;;;;;;4.99;67.94;96166.00;5114596;28;20201;-68
2022/12/18 08:19:52;;;;;;;15.57;14.18;;;;;;;4.99;68.23;96164.06;5114931;28;20215;-68
2022/12/18 08:22:18;;;;;;;14.80;13.32;;;;;;;4.97;67.80;96173.66;5114527;28;20232;-67
2022/12/18 08:24:46;;;;;;;14.35;13.05;;;;;;;4.86;68.22;96180.34;5114459;28;20211;-68
2022/12/18 08:27:12;;;;;;;15.20;13.80;;;;;;;4.85;68.36;96181.44;5114579;28;20202;-67
2022/12/18 08:29:39;;;;;;;14.88;13.48;;;;;;;4.89;67.93;96191.50;5114454;28;20192;-67
2022/12/18 08:32:07;;;;;;;15.70;14.32;;;;;;;4.88;67.78;96189.06;5114468;28;20630;-67
2022/12/18 08:34:34;;;;;;;14.68;13.38;;;;;;;4.92;67.87;96190.13;5115604;28;20192;-68
2022/12/18 08:37:01;;;;;;;15.40;14.00;;;;;;;4.96;67.81;96199.38;5115310;28;20188;-67
2022/12/18 08:39:27;;;;;;;15.57;14.18;;;;;;;4.93;67.15;96194.47;5115195;28;20551;-68
2022/12/18 08:44:41;;;;;;;15.93;14.43;;;;;;;4.91;67.04;96194.78;5114404;28;20201;-67
2022/12/18 08:47:09;;;;;;;14.73;13.40;;;;;;;4.84;66.97;96202.50;5115382;28;20201;-67
2022/12/18 08:49:36;;;;;;;16.60;14.95;;;;;;;4.82;67.20;96201.97;5115929;28;20199;-67
2022/12/18 08:52:03;;;;;;;17.17;15.57;;;;;;;4.80;67.63;96210.47;5118078;28;20244;-68
2022/12/18 08:54:32;;;;;;;17.58;15.85;;;;;;;4.91;67.65;96202.97;5118439;28;20230;-67
2022/12/18 08:56:59;;;;;;;16.95;15.38;;;;;;;4.96;67.30;96196.63;5117817;28;20199;-68
2022/12/18 08:59:28;;;;;;;16.08;14.57;;;;;;;4.99;67.46;96204.25;5118841;28;20187;-68
2022/12/18 09:01:55;;;;;;;15.23;13.82;;;;;;;5.06;66.67;96208.28;5117719;28;20214;-67
2022/12/18 09:04:23;;;;;;;14.35;13.05;;;;;;;5.03;66.75;96203.38;5117877;28;20630;-67
2022/12/18 09:06:50;;;;;;;14.85;13.65;;;;;;;5.04;66.92;96198.72;5118997;28;20180;-68
2022/12/18 09:09:17;;;;;;;14.43;13.13;;;;;;;5.03;66.58;96203.38;5118989;28;20192;-68
2022/12/18 09:11:44;;;;;;;14.30;13.00;;;;;;;5.06;66.92;96194.63;5117835;28;20188;-68
2022/12/18 09:14:11;;;;;;;14.25;13.00;;;;;;;5.10;66.94;96202.25;5118481;28;20188;-68
2022/12/18 09:16:37;;;;;;;14.75;13.35;;;;;;;5.13;66.81;96201.66;5117977;28;20208;-67
2022/12/18 09:19:05;;;;;;;14.38;12.98;;;;;;;5.11;66.66;96203.84;5117680;28;20195;-68
2022/12/18 09:21:38;;;;;;;14.43;13.13;;;;;;;5.09;66.35;96198.69;5117753;28;20231;-72
2022/12/18 09:24:06;;;;;;;14.25;12.85;;;;;;;5.02;65.47;96198.22;5118014;28;20223;-68
2022/12/18 09:26:33;;;;;;;13.93;12.70;;;;;;;4.99;65.34;96196.06;5118684;28;20187;-69
2022/12/18 09:29:01;;;;;;;14.95;13.45;;;;;;;5.00;65.47;96197.69;5118637;28;20195;-70
2022/12/18 09:31:28;;;;;;;14.85;13.45;;;;;;;5.04;65.41;96196.00;5118280;28;20249;-68
2022/12/18 09:33:56;;;;;;;13.80;12.50;;;;;;;5.02;64.83;96200.97;5118170;28;20221;-68
2022/12/18 09:36:23;;;;;;;13.32;12.18;;;;;;;5.04;65.20;96205.00;5117796;28;20234;-68
2022/12/18 09:38:52;;;;;;;13.57;12.38;;;;;;;5.12;65.45;96203.59;5117629;28;20207;-68
2022/12/18 09:41:33;;;;;;;13.50;12.30;;;;;;;5.15;64.70;96213.09;5100002;28;20247;-68
2022/12/18 09:44:02;;;;;;;14.10;12.82;;;;;;;5.16;64.79;96203.81;5118740;28;20183;-69
2022/12/18 09:46:31;;;;;;;13.15;11.93;;;;;;;5.14;64.75;96206.81;5118172;28;20245;-68
2022/12/18 09:49:02;;;;;;;13.98;12.57;;;;;;;5.21;65.11;96201.03;5117211;28;20204;-68
2022/12/18 09:51:31;;;;;;;13.85;12.45;;;;;;;5.30;64.96;96199.25;5116981;28;20212;-68
2022/12/18 09:54:02;;;;;;;13.65;12.35;;;;;;;5.30;64.24;96200.09;5118141;28;20202;-68
2022/12/18 09:56:31;;;;;;;14.20;12.90;;;;;;;5.30;64.20;96193.78;5117679;28;20218;-68
2022/12/18 09:58:59;;;;;;;13.55;12.25;;;;;;;5.29;63.39;96203.09;5118269;28;20199;-68
2022/12/18 10:01:27;;;;;;;12.65;11.45;;;;;;;5.24;63.72;96192.22;5115947;28;20226;-68
2022/12/18 10:03:55;;;;;;;14.00;12.60;;;;;;;5.29;63.90;96190.22;5116966;28;20200;-68
2022/12/18 10:06:25;;;;;;;14.18;12.88;;;;;;;5.21;64.11;96192.81;5116615;28;20592;-69
2022/12/18 10:08:55;;;;;;;14.68;13.38;;;;;;;5.26;64.69;96192.75;5116841;28;20204;-68
2022/12/18 10:11:41;;;;;;;13.70;12.40;;;;;;;5.36;64.33;96200.84;5116550;28;20244;-68
2022/12/18 10:14:15;;;;;;;13.15;11.85;;;;;;;5.31;63.20;96196.25;5116720;28;20203;-68
2022/12/18 10:16:49;;;;;;;13.13;11.85;;;;;;;5.33;62.60;96198.66;5116569;28;20195;-68
2022/12/18 10:19:27;;;;;;;12.63;11.52;;;;;;;5.37;63.09;96188.78;5116129;28;20196;-68
2022/12/18 10:21:59;;;;;;;12.27;11.27;;;;;;;5.36;62.86;96198.09;5116192;28;20234;-68
2022/12/18 10:24:33;;;;;;;13.20;12.00;;;;;;;5.31;63.16;96201.72;5116618;28;20199;-68
2022/12/18 10:27:13;;;;;;;13.55;12.35;;;;;;;5.32;62.77;96199.78;5116818;28;20201;-69
2022/12/18 10:29:40;;;;;;;13.43;12.23;;;;;;;5.30;62.61;96208.31;5115954;28;20198;-68
2022/12/18 10:32:08;;;;;;;12.88;11.68;;;;;;;5.28;62.54;96202.28;5116137;28;20612;-68
2022/12/18 10:34:35;;;;;;;13.40;12.20;;;;;;;5.36;63.20;96208.22;5116340;28;20196;-68
2022/12/18 10:37:04;;;;;;;13.88;12.50;;;;;;;5.37;62.85;96207.94;5117211;28;20184;-68
2022/12/18 10:39:31;;;;;;;13.32;12.13;;;;;;;5.40;62.98;96203.78;5116562;28;20241;-68
2022/12/18 10:42:11;;;;;;;14.65;13.35;;;;;;;5.42;62.29;96201.59;5117214;28;20219;-68
2022/12/18 10:44:38;;;;;;;14.60;13.30;;;;;;;5.43;62.68;96198.56;5115215;28;20496;-68
2022/12/18 10:47:08;;;;;;;14.13;12.73;;;;;;;5.43;62.68;96198.56;5117074;28;20188;-69
2022/12/18 10:49:35;;;;;;;14.52;13.15;;;;;;;5.51;63.08;96191.63;5116085;28;20579;-68
2022/12/18 10:52:08;;;;;;;14.43;13.02;;;;;;;5.63;62.54;96207.59;5115886;28;20602;-69
2022/12/18 10:54:36;;;;;;;13.90;12.60;;;;;;;5.66;61.60;96213.31;5116357;28;20607;-69
2022/12/18 10:57:18;;;;;;;12.88;11.70;;;;;;;5.64;60.79;96198.31;5117706;28;20180;-68
2022/12/18 10:59:52;;;;;;;12.82;11.65;;;;;;;5.63;60.67;96196.66;5116740;28;20187;-68
2022/12/18 11:02:27;;;;;;;12.35;11.15;;;;;;;5.60;60.78;96194.53;5116606;28;20592;-68
2022/12/18 11:04:54;;;;;;;13.65;12.35;;;;;;;5.55;60.23;96203.59;5115706;28;20252;-68
2022/12/18 11:07:20;;;;;;;12.07;10.98;;;;;;;5.46;59.38;96200.72;5117007;28;20248;-69
2022/12/18 11:10:03;;;;;;;13.52;12.32;;;;;;;5.50;60.52;96203.69;5116477;28;20207;-68
2022/12/18 11:12:31;;;;;;;12.68;11.48;;;;;;;5.47;59.98;96204.25;5116533;28;20516;-69
2022/12/18 11:14:59;;;;;;;12.75;11.55;;;;;;;5.49;59.76;96202.06;5115286;28;20237;-69
2022/12/18 11:17:30;;;;;;;13.30;12.10;;;;;;;5.46;59.79;96203.44;5116616;28;20187;-68
2022/12/18 11:19:58;;;;;;;13.65;12.43;;;;;;;5.52;60.06;96206.94;5117074;28;20271;-69
2022/12/18 11:22:27;;;;;;;13.57;12.27;;;;;;;5.48;58.86;96203.97;5116437;28;20224;-68
2022/12/18 11:24:56;;;;;;;13.60;12.30;;;;;;;5.50;59.39;96215.44;5116536;28;20202;-68
2022/12/18 11:27:23;;;;;;;13.73;12.43;;;;;;;5.54;59.48;96219.22;5115649;28;20199;-69
2022/12/18 11:29:52;;;;;;;12.68;11.48;;;;;;;5.52;59.46;96209.69;5115275;28;20199;-69
2022/12/18 11:32:31;;;;;;;13.20;11.85;;;;;;;5.52;59.81;96210.50;5116012;28;20175;-68
2022/12/18 11:35:02;;;;;;;12.23;11.13;;;;;;;5.57;59.53;96206.88;5116306;28;20240;-68
2022/12/18 11:37:29;;;;;;;10.45;9.48;;;;;;;5.57;58.25;96197.84;5116108;28;20187;-68
2022/12/18 11:39:59;;;;;;;11.52;10.40;;;;;;;5.57;57.68;96206.06;5115811;28;20223;-68
2022/12/18 11:42:32;;;;;;;10.90;9.90;;;;;;;5.56;58.20;96202.50;5115345;28;20211;-68
2022/12/18 11:45:23;;;;;;;10.90;9.90;;;;;;;5.60;58.56;96209.03;5116307;28;20243;-68
2022/12/18 11:47:53;;;;;;;12.75;11.55;;;;;;;5.55;57.90;96211.81;5116233;28;20196;-68
2022/12/18 11:50:27;;;;;;;12.70;11.50;;;;;;;5.49;58.39;96216.56;5115071;28;20595;-68